Time;durP1;ratioP1;P1;durP2;ratioP2;P2;SDS_P1;SDS_P2;PMS_P1;PMS_P2;Temp;Humidity;BMP_temperature;BMP_pressure;BME280_temperature;BME280_humidity;BME280_pressure;Samples;Min_cycle;Max_cycle;Signal;HPM_P1;HPM_P2
2022/06/11 00:02:15;;;;;;;7.47;2.55;;;;;;;;;;5044305;28;20048;-77
2022/06/11 00:04:42;;;;;;;6.00;2.83;;;;;;;;;;5044252;28;20418;-80
2022/06/11 00:07:13;;;;;;;7.00;2.88;;;;;;;;;;5044662;28;20356;-80
2022/06/11 00:09:39;;;;;;;7.93;2.78;;;;;;;;;;5046117;28;20555;-79
2022/06/11 00:12:07;;;;;;;7.93;2.63;;;;;;;;;;5045596;28;20033;-78
2022/06/11 00:14:33;;;;;;;6.90;2.65;;;;;;;;;;5034439;28;20056;-83
2022/06/11 00:17:01;;;;;;;5.80;2.60;;;;;;;;;;5046704;28;20049;-77
2022/06/11 00:19:27;;;;;;;8.20;2.80;;;;;;;;;;5047939;28;20085;-81
2022/06/11 00:21:53;;;;;;;5.70;2.60;;;;;;;;;;5044044;28;20024;-74
2022/06/11 00:24:21;;;;;;;8.38;2.90;;;;;;;;;;5036243;28;20045;-73
2022/06/11 00:26:49;;;;;;;7.30;2.60;;;;;;;;;;5033353;28;20459;-73
2022/06/11 00:29:16;;;;;;;7.10;2.58;;;;;;;;;;5032918;28;20462;-76
2022/06/11 00:31:42;;;;;;;6.80;2.70;;;;;;;;;;5032621;28;20032;-77
2022/06/11 00:34:08;;;;;;;11.80;2.75;;;;;;;;;;5033296;28;20021;-79
2022/06/11 00:36:34;;;;;;;8.05;2.30;;;;;;;;;;5032896;28;20033;-80
2022/06/11 00:39:00;;;;;;;5.68;2.50;;;;;;;;;;5033280;28;20033;-81
2022/06/11 00:41:28;;;;;;;7.50;2.70;;;;;;;;;;5031993;28;20036;-73
2022/06/11 00:43:54;;;;;;;6.15;2.60;;;;;;;;;;5032624;28;20499;-81
2022/06/11 00:46:46;;;;;;;8.30;2.83;;;;;;;;;;5032860;28;20108;-78
2022/06/11 00:49:38;;;;;;;8.90;2.75;;;;;;;;;;5032922;28;20067;-76
2022/06/11 00:52:09;;;;;;;7.43;2.80;;;;;;;;;;5032162;28;20037;-76
2022/06/11 00:54:39;;;;;;;5.47;2.33;;;;;;;;;;5032863;28;20121;-77
2022/06/11 00:57:05;;;;;;;6.38;2.88;;;;;;;;;;5032623;28;20057;-82
2022/06/11 00:59:41;;;;;;;8.48;3.00;;;;;;;;;;5032727;28;20060;-80
2022/06/11 01:02:08;;;;;;;7.00;2.45;;;;;;;;;;5032288;28;20022;-73
2022/06/11 01:04:40;;;;;;;8.32;2.55;;;;;;;;;;5032645;28;20712;-81
2022/06/11 01:07:33;;;;;;;7.55;2.70;;;;;;;;;;5032166;28;20107;-79
2022/06/11 01:10:28;;;;;;;10.35;2.92;;;;;;;;;;5032121;28;20681;-76
2022/06/11 01:13:12;;;;;;;7.20;2.75;;;;;;;;;;5030987;28;20033;-81
2022/06/11 01:15:45;;;;;;;8.13;2.85;;;;;;;;;;5032364;28;20025;-82
2022/06/11 01:18:28;;;;;;;6.55;2.58;;;;;;;;;;5032345;28;20033;-80
2022/06/11 01:21:19;;;;;;;6.53;2.72;;;;;;;;;;5032324;28;20511;-79
2022/06/11 01:23:56;;;;;;;8.15;2.58;;;;;;;;;;5031955;28;20099;-74
2022/06/11 01:26:41;;;;;;;6.22;2.78;;;;;;;;;;5032637;28;20120;-73
2022/06/11 01:29:35;;;;;;;9.30;3.05;;;;;;;;;;5030749;28;20037;-75
2022/06/11 01:32:11;;;;;;;6.18;2.75;;;;;;;;;;5031750;28;20547;-80
2022/06/11 01:34:48;;;;;;;6.47;2.65;;;;;;;;;;5031871;28;20021;-74
2022/06/11 01:37:20;;;;;;;9.80;2.97;;;;;;;;;;5031255;28;20550;-80
2022/06/11 01:39:48;;;;;;;5.93;2.90;;;;;;;;;;5031533;28;20036;-79
2022/06/11 01:42:40;;;;;;;6.53;2.72;;;;;;;;;;5031158;28;20053;-75
2022/06/11 01:45:27;;;;;;;9.05;2.60;;;;;;;;;;5031410;28;20025;-74
2022/06/11 01:47:53;;;;;;;6.72;2.80;;;;;;;;;;5031345;28;20025;-81
2022/06/11 01:50:27;;;;;;;8.65;2.85;;;;;;;;;;5031217;28;20032;-76
2022/06/11 01:53:04;;;;;;;9.57;3.00;;;;;;;;;;5030015;28;20124;-80
2022/06/11 01:56:01;;;;;;;7.85;2.38;;;;;;;;;;5031224;28;20018;-72
2022/06/11 01:58:47;;;;;;;7.55;2.38;;;;;;;;;;5030827;28;20033;-75
2022/06/11 02:01:37;;;;;;;5.13;2.47;;;;;;;;;;5030925;28;20474;-82
2022/06/11 02:04:18;;;;;;;7.35;2.50;;;;;;;;;;5031055;28;20049;-79
2022/06/11 02:07:01;;;;;;;6.43;2.45;;;;;;;;;;5030839;28;20064;-76
2022/06/11 02:09:41;;;;;;;5.10;2.00;;;;;;;;;;5030738;28;20053;-80
2022/06/11 02:12:34;;;;;;;6.07;1.95;;;;;;;;;;5030844;28;20036;-79
2022/06/11 02:15:11;;;;;;;6.90;1.95;;;;;;;;;;5029649;28;20037;-79
2022/06/11 02:17:41;;;;;;;9.45;1.88;;;;;;;;;;5030881;28;20112;-79
2022/06/11 02:20:15;;;;;;;5.68;2.00;;;;;;;;;;5031008;28;20033;-80
2022/06/11 02:22:50;;;;;;;8.45;2.00;;;;;;;;;;5031049;28;20159;-82
2022/06/11 02:25:21;;;;;;;5.57;1.70;;;;;;;;;;5030937;28;20040;-81
2022/06/11 02:27:49;;;;;;;7.63;2.00;;;;;;;;;;5030685;28;20036;-80
2022/06/11 02:30:20;;;;;;;4.95;1.90;;;;;;;;;;5030746;28;20033;-75
2022/06/11 02:32:46;;;;;;;4.25;1.70;;;;;;;;;;5030279;28;20118;-77
2022/06/11 02:35:22;;;;;;;5.35;1.77;;;;;;;;;;5030707;28;20049;-82
2022/06/11 02:37:48;;;;;;;6.80;1.70;;;;;;;;;;5030467;28;20037;-79
2022/06/11 02:40:31;;;;;;;4.53;1.80;;;;;;;;;;5030959;28;20148;-74
2022/06/11 02:42:57;;;;;;;6.22;1.90;;;;;;;;;;5030838;28;20107;-74
2022/06/11 02:45:23;;;;;;;6.57;2.13;;;;;;;;;;5030779;28;20060;-81
2022/06/11 02:47:50;;;;;;;5.60;1.85;;;;;;;;;;5030515;28;20032;-82
2022/06/11 02:50:21;;;;;;;4.57;1.70;;;;;;;;;;5030540;28;20109;-75
2022/06/11 02:52:46;;;;;;;5.72;1.75;;;;;;;;;;5030005;28;20101;-80
2022/06/11 02:55:12;;;;;;;7.07;1.88;;;;;;;;;;5030337;28;20180;-74
2022/06/11 02:57:38;;;;;;;3.13;1.55;;;;;;;;;;5030279;28;20033;-81
2022/06/11 03:00:09;;;;;;;6.90;1.90;;;;;;;;;;5030701;28;20768;-81
2022/06/11 03:02:35;;;;;;;6.38;1.83;;;;;;;;;;5030807;28;20029;-80
2022/06/11 03:05:00;;;;;;;4.43;1.45;;;;;;;;;;5034291;28;20124;-81
2022/06/11 03:07:26;;;;;;;5.75;1.70;;;;;;;;;;5034692;28;20358;-81
2022/06/11 03:09:51;;;;;;;5.65;1.70;;;;;;;;;;5034500;28;20060;-80
2022/06/11 03:12:17;;;;;;;5.32;1.55;;;;;;;;;;5034765;28;20036;-82
2022/06/11 03:14:43;;;;;;;4.18;1.50;;;;;;;;;;5034823;28;20025;-80
2022/06/11 03:17:12;;;;;;;5.63;1.55;;;;;;;;;;5034779;28;20068;-79
2022/06/11 03:19:38;;;;;;;5.47;1.70;;;;;;;;;;5034157;28;20029;-83
2022/06/11 03:22:04;;;;;;;6.10;1.83;;;;;;;;;;5032951;28;20057;-79
2022/06/11 03:24:29;;;;;;;3.22;1.48;;;;;;;;;;5034129;28;20084;-80
2022/06/11 03:26:55;;;;;;;4.85;1.60;;;;;;;;;;5034278;28;20128;-81
2022/06/11 03:29:25;;;;;;;6.35;1.60;;;;;;;;;;5034211;28;20025;-79
2022/06/11 03:31:52;;;;;;;7.43;1.52;;;;;;;;;;5034381;28;20033;-82
2022/06/11 03:34:18;;;;;;;6.70;1.70;;;;;;;;;;5034607;28;20034;-81
2022/06/11 03:36:45;;;;;;;4.78;1.50;;;;;;;;;;5034099;28;20071;-80
2022/06/11 03:39:12;;;;;;;7.10;1.60;;;;;;;;;;5033642;28;20051;-74
2022/06/11 03:41:39;;;;;;;5.57;1.80;;;;;;;;;;5033738;28;20507;-81
2022/06/11 03:44:04;;;;;;;5.18;1.40;;;;;;;;;;5033576;28;20030;-80
2022/06/11 03:46:30;;;;;;;6.55;1.63;;;;;;;;;;5033913;28;20037;-80
2022/06/11 03:48:56;;;;;;;6.05;1.60;;;;;;;;;;5033952;28;20037;-81
2022/06/11 03:51:22;;;;;;;5.15;1.73;;;;;;;;;;5033760;28;20405;-81
2022/06/11 03:53:47;;;;;;;5.82;1.40;;;;;;;;;;5033663;28;20493;-82
2022/06/11 03:56:13;;;;;;;6.75;1.73;;;;;;;;;;5033783;28;20049;-81
2022/06/11 03:58:40;;;;;;;6.18;1.40;;;;;;;;;;5033380;28;20147;-82
2022/06/11 04:01:15;;;;;;;6.60;1.52;;;;;;;;;;5033554;28;20489;-82
2022/06/11 04:03:47;;;;;;;7.65;1.52;;;;;;;;;;5033500;28;20108;-83
2022/06/11 04:06:14;;;;;;;4.97;1.60;;;;;;;;;;5033755;28;20477;-82
2022/06/11 04:08:40;;;;;;;5.13;1.60;;;;;;;;;;5033290;28;20030;-80
2022/06/11 04:11:06;;;;;;;3.45;1.45;;;;;;;;;;5033631;28;20053;-81
2022/06/11 04:13:34;;;;;;;3.75;1.40;;;;;;;;;;5033397;28;20108;-82
2022/06/11 04:16:00;;;;;;;4.65;1.40;;;;;;;;;;5031871;28;20091;-82
2022/06/11 04:18:43;;;;;;;3.20;1.30;;;;;;;;;;5033208;28;20029;-80
2022/06/11 04:21:12;;;;;;;6.55;1.45;;;;;;;;;;5033016;28;20053;-76
2022/06/11 04:23:40;;;;;;;7.82;1.60;;;;;;;;;;5032875;28;20124;-79
2022/06/11 04:26:08;;;;;;;2.78;1.38;;;;;;;;;;5033072;28;20072;-82
2022/06/11 04:28:35;;;;;;;2.97;1.40;;;;;;;;;;5032929;28;20040;-72
2022/06/11 04:31:03;;;;;;;5.65;1.58;;;;;;;;;;5032738;28;20040;-73
2022/06/11 04:33:29;;;;;;;4.28;1.67;;;;;;;;;;5032462;28;20053;-73
2022/06/11 04:35:54;;;;;;;4.55;1.33;;;;;;;;;;5032571;28;20489;-80
2022/06/11 04:38:20;;;;;;;6.25;1.50;;;;;;;;;;5032588;28;20445;-81
2022/06/11 04:40:47;;;;;;;2.17;1.33;;;;;;;;;;5032794;28;20022;-79
2022/06/11 04:43:13;;;;;;;6.80;1.45;;;;;;;;;;5032714;28;20037;-79
2022/06/11 04:45:38;;;;;;;6.75;1.60;;;;;;;;;;5032469;28;20029;-77
2022/06/11 04:48:04;;;;;;;4.30;1.33;;;;;;;;;;5032591;28;20028;-82
2022/06/11 04:50:30;;;;;;;6.55;1.52;;;;;;;;;;5032193;28;20055;-78
2022/06/11 04:52:55;;;;;;;3.67;1.40;;;;;;;;;;5032128;28;20021;-80
2022/06/11 04:55:21;;;;;;;4.65;1.38;;;;;;;;;;5030913;28;20033;-80
2022/06/11 04:57:47;;;;;;;5.40;1.70;;;;;;;;;;5032460;28;20477;-82
2022/06/11 05:00:20;;;;;;;3.75;1.52;;;;;;;;;;5032246;28;20032;-81
2022/06/11 05:02:47;;;;;;;4.75;1.30;;;;;;;;;;5032278;28;20051;-81
2022/06/11 05:05:13;;;;;;;4.18;1.60;;;;;;;;;;5032158;28;20053;-74
2022/06/11 05:07:40;;;;;;;5.60;1.60;;;;;;;;;;5032312;28;20033;-83
2022/06/11 05:10:07;;;;;;;5.78;1.52;;;;;;;;;;5031916;28;20017;-82
2022/06/11 05:12:32;;;;;;;5.68;1.83;;;;;;;;;;5032069;28;20082;-83
2022/06/11 05:14:58;;;;;;;3.00;1.52;;;;;;;;;;5032172;28;20037;-82
2022/06/11 05:17:23;;;;;;;5.90;2.05;;;;;;;;;;5031984;28;20452;-80
2022/06/11 05:19:48;;;;;;;4.40;1.55;;;;;;;;;;5032251;28;20040;-80
2022/06/11 05:22:14;;;;;;;3.33;1.38;;;;;;;;;;5031912;28;20025;-76
2022/06/11 05:24:39;;;;;;;4.65;1.73;;;;;;;;;;5031797;28;20083;-83
2022/06/11 05:27:09;;;;;;;7.30;1.85;;;;;;;;;;5030341;28;20033;-82
2022/06/11 05:29:53;;;;;;;4.40;1.40;;;;;;;;;;5031664;28;20049;-76
2022/06/11 05:32:21;;;;;;;2.97;1.13;;;;;;;;;;5031668;28;20079;-74
2022/06/11 05:34:47;;;;;;;6.18;1.52;;;;;;;;;;5031624;28;20040;-80
2022/06/11 05:37:13;;;;;;;4.68;1.45;;;;;;;;;;5031602;28;20037;-81
2022/06/11 05:39:41;;;;;;;2.70;1.33;;;;;;;;;;5031556;28;20033;-74
2022/06/11 05:42:07;;;;;;;7.88;1.35;;;;;;;;;;5031183;28;20032;-74
2022/06/11 05:44:32;;;;;;;3.53;1.27;;;;;;;;;;5031326;28;20100;-78
2022/06/11 05:46:58;;;;;;;5.15;1.40;;;;;;;;;;5031079;28;20030;-80
2022/06/11 05:49:28;;;;;;;6.13;1.65;;;;;;;;;;5031209;28;20033;-78
2022/06/11 05:52:01;;;;;;;7.55;1.55;;;;;;;;;;5031128;28;20396;-76
2022/06/11 05:54:30;;;;;;;5.60;1.67;;;;;;;;;;5031442;28;20044;-77
2022/06/11 05:56:56;;;;;;;4.75;1.60;;;;;;;;;;5031026;28;20064;-78
2022/06/11 05:59:26;;;;;;;6.38;1.50;;;;;;;;;;5031214;28;20037;-78
2022/06/11 06:01:54;;;;;;;7.68;1.60;;;;;;;;;;5030720;28;20033;-76
2022/06/11 06:04:19;;;;;;;4.82;1.40;;;;;;;;;;5030961;28;20036;-76
2022/06/11 06:06:45;;;;;;;5.97;1.40;;;;;;;;;;5030905;28;20030;-78
2022/06/11 06:09:10;;;;;;;7.70;1.58;;;;;;;;;;5031244;28;20029;-82
2022/06/11 06:11:36;;;;;;;6.95;1.30;;;;;;;;;;5031135;28;20444;-81
2022/06/11 06:14:01;;;;;;;5.80;1.50;;;;;;;;;;5031024;28;20048;-74
2022/06/11 06:16:29;;;;;;;4.22;1.30;;;;;;;;;;5030893;28;20026;-82
2022/06/11 06:18:56;;;;;;;4.93;1.50;;;;;;;;;;5030857;28;20531;-82
2022/06/11 06:21:24;;;;;;;4.28;1.70;;;;;;;;;;5030686;28;20053;-81
2022/06/11 06:23:50;;;;;;;5.40;1.70;;;;;;;;;;5030709;28;20474;-77
2022/06/11 06:26:15;;;;;;;5.80;1.60;;;;;;;;;;5030897;28;20504;-82
2022/06/11 06:28:41;;;;;;;4.43;1.88;;;;;;;;;;5031026;28;20022;-73
2022/06/11 06:31:08;;;;;;;4.05;1.70;;;;;;;;;;5030694;28;20048;-81
2022/06/11 06:33:34;;;;;;;5.55;1.70;;;;;;;;;;5030467;28;20026;-75
2022/06/11 06:36:01;;;;;;;6.35;1.80;;;;;;;;;;5030473;28;20030;-81
2022/06/11 06:38:27;;;;;;;3.63;1.55;;;;;;;;;;5030050;28;20108;-75
2022/06/11 06:40:53;;;;;;;3.75;1.75;;;;;;;;;;5029140;28;20116;-74
2022/06/11 06:43:19;;;;;;;5.97;1.90;;;;;;;;;;5030549;28;20108;-74
2022/06/11 06:45:44;;;;;;;5.97;1.75;;;;;;;;;;5030818;28;20041;-75
2022/06/11 06:48:10;;;;;;;6.88;1.92;;;;;;;;;;5030766;28;20024;-79
2022/06/11 06:50:36;;;;;;;5.38;1.73;;;;;;;;;;5030582;28;20029;-76
2022/06/11 06:53:02;;;;;;;6.03;2.05;;;;;;;;;;5030194;28;20487;-74
2022/06/11 06:55:27;;;;;;;5.20;1.90;;;;;;;;;;5030172;28;20029;-81
2022/06/11 06:57:52;;;;;;;4.80;2.00;;;;;;;;;;5030123;28;20167;-80
2022/06/11 07:00:19;;;;;;;8.00;2.00;;;;;;;;;;5030380;28;20466;-81
2022/06/11 07:02:45;;;;;;;4.65;1.70;;;;;;;;;;5030392;28;20420;-81
2022/06/11 07:05:12;;;;;;;4.72;1.75;;;;;;;;;;5030540;28;20040;-78
2022/06/11 07:07:41;;;;;;;5.20;1.85;;;;;;;;;;5030089;28;20489;-79
2022/06/11 07:10:08;;;;;;;6.57;1.60;;;;;;;;;;5030126;28;20025;-81
2022/06/11 07:12:33;;;;;;;5.45;1.40;;;;;;;;;;5029842;28;20104;-81
2022/06/11 07:14:59;;;;;;;5.80;1.55;;;;;;;;;;5030372;28;20562;-73
2022/06/11 07:17:32;;;;;;;7.05;1.70;;;;;;;;;;5029924;28;20044;-74
2022/06/11 07:20:01;;;;;;;5.70;1.92;;;;;;;;;;5030166;28;20033;-74
2022/06/11 07:22:38;;;;;;;;;;;;;;;;;;5030292;28;20037;-77
2022/06/11 07:25:07;;;;;;;6.15;1.70;;;;;;;;;;5029926;28;19921;-77
2022/06/11 07:27:37;;;;;;;5.70;1.73;;;;;;;;;;5029965;28;20029;-81
2022/06/11 07:30:14;;;;;;;4.05;1.70;;;;;;;;;;5029993;28;20018;-74
2022/06/11 07:32:42;;;;;;;3.17;1.45;;;;;;;;;;5029809;28;20723;-80
2022/06/11 07:35:11;;;;;;;4.82;1.50;;;;;;;;;;5029937;28;20022;-79
2022/06/11 07:37:38;;;;;;;5.80;1.50;;;;;;;;;;5029615;28;20033;-78
2022/06/11 07:40:05;;;;;;;3.50;1.40;;;;;;;;;;5030370;28;20022;-79
2022/06/11 07:42:30;;;;;;;5.20;1.30;;;;;;;;;;5029563;28;20412;-76
2022/06/11 07:44:56;;;;;;;6.20;1.50;;;;;;;;;;5030142;28;20488;-81
2022/06/11 07:50:07;;;;;;;6.90;1.58;;;;;;;;;;5031583;28;20551;-81
2022/06/11 07:52:33;;;;;;;3.80;1.52;;;;;;;;;;5033384;28;20052;-81
2022/06/11 07:55:01;;;;;;;5.07;1.50;;;;;;;;;;5033571;28;20401;-81
2022/06/11 07:57:27;;;;;;;3.92;1.50;;;;;;;;;;5033459;28;20057;-81
2022/06/11 07:59:52;;;;;;;4.30;1.50;;;;;;;;;;5033562;28;20056;-81
2022/06/11 08:02:18;;;;;;;4.70;1.40;;;;;;;;;;5033318;28;20104;-80
2022/06/11 08:04:43;;;;;;;7.78;1.88;;;;;;;;;;5033192;28;20465;-79
2022/06/11 08:07:08;;;;;;;5.57;1.70;;;;;;;;;;5033058;28;20029;-80
2022/06/11 08:09:34;;;;;;;7.35;1.55;;;;;;;;;;5032073;28;20477;-80
2022/06/11 08:11:59;;;;;;;7.25;1.58;;;;;;;;;;5033271;28;20033;-80
2022/06/11 08:14:25;;;;;;;6.82;1.73;;;;;;;;;;5033265;28;20421;-79
2022/06/11 08:16:50;;;;;;;5.45;1.83;;;;;;;;;;5033271;28;20021;-79
2022/06/11 08:19:16;;;;;;;6.30;1.70;;;;;;;;;;5031790;28;20030;-78
2022/06/11 08:21:41;;;;;;;6.70;1.95;;;;;;;;;;5032896;28;20057;-79
2022/06/11 08:24:07;;;;;;;8.52;2.08;;;;;;;;;;5032389;28;20624;-78
2022/06/11 08:26:34;;;;;;;9.25;2.10;;;;;;;;;;5031649;28;20033;-79
2022/06/11 08:29:00;;;;;;;6.50;2.20;;;;;;;;;;5033004;28;20117;-73
2022/06/11 08:31:25;;;;;;;5.00;1.98;;;;;;;;;;5032822;28;20602;-74
2022/06/11 08:33:51;;;;;;;6.47;1.83;;;;;;;;;;5032747;28;20032;-78
2022/06/11 08:36:16;;;;;;;5.50;1.70;;;;;;;;;;5032674;28;20535;-74
2022/06/11 08:38:45;;;;;;;6.20;1.70;;;;;;;;;;5032411;28;20112;-78
2022/06/11 08:41:20;;;;;;;6.65;1.90;;;;;;;;;;5032636;28;20536;-80
2022/06/11 08:44:01;;;;;;;6.20;1.67;;;;;;;;;;5032346;28;20028;-81
2022/06/11 08:46:32;;;;;;;5.22;1.60;;;;;;;;;;5032996;28;20033;-75
2022/06/11 08:49:17;;;;;;;5.63;1.40;;;;;;;;;;5032583;28;20132;-80
2022/06/11 08:51:53;;;;;;;4.38;1.30;;;;;;;;;;5032384;28;20474;-73
2022/06/11 08:54:22;;;;;;;6.72;1.83;;;;;;;;;;5032084;28;20389;-75
2022/06/11 08:56:48;;;;;;;4.57;1.48;;;;;;;;;;5032177;28;20045;-81
2022/06/11 08:59:25;;;;;;;5.68;1.48;;;;;;;;;;5032159;28;20482;-81
2022/06/11 09:02:05;;;;;;;4.65;1.70;;;;;;;;;;5031816;28;20029;-74
2022/06/11 09:04:30;;;;;;;;;;;;;;;;;;5031458;28;20021;-79
2022/06/11 09:07:17;;;;;;;3.93;1.50;;;;;;;;;;5032076;28;20391;-80
2022/06/11 09:09:54;;;;;;;7.60;1.50;;;;;;;;;;5032029;28;20326;-79
2022/06/11 09:13:08;;;;;;;5.63;1.40;;;;;;;;;;5031765;28;20442;-73
2022/06/11 09:15:42;;;;;;;5.97;1.25;;;;;;;;;;4994856;28;20573;-74
2022/06/11 09:18:26;;;;;;;9.25;1.63;;;;;;;;;;5031580;28;20075;-73
2022/06/11 09:21:02;;;;;;;6.60;1.48;;;;;;;;;;5031924;28;20029;-74
2022/06/11 09:23:40;;;;;;;6.47;1.70;;;;;;;;;;5031272;28;20123;-77
2022/06/11 09:26:15;;;;;;;4.38;1.30;;;;;;;;;;5031969;28;20067;-80
2022/06/11 09:28:40;;;;;;;4.40;1.60;;;;;;;;;;5031560;28;20040;-74
2022/06/11 09:31:32;;;;;;;6.10;1.40;;;;;;;;;;5031699;28;20026;-73
2022/06/11 09:34:46;;;;;;;5.25;1.60;;;;;;;;;;5021739;28;20038;-76
2022/06/11 09:37:25;;;;;;;10.40;1.50;;;;;;;;;;5031351;28;20029;-73
2022/06/11 09:40:32;;;;;;;6.70;1.63;;;;;;;;;;5031629;28;20056;-74
2022/06/11 09:43:12;;;;;;;7.30;1.65;;;;;;;;;;5025432;28;20099;-73
2022/06/11 09:46:06;;;;;;;6.53;1.55;;;;;;;;;;5031302;28;20473;-73
2022/06/11 09:48:54;;;;;;;5.57;1.55;;;;;;;;;;5030838;28;20059;-74
2022/06/11 09:51:57;;;;;;;7.45;1.63;;;;;;;;;;5031176;28;20028;-79
2022/06/11 09:54:58;;;;;;;8.30;1.60;;;;;;;;;;5030643;28;20151;-74
2022/06/11 09:57:39;;;;;;;4.10;1.42;;;;;;;;;;5029601;28;20451;-80
2022/06/11 10:00:34;;;;;;;6.53;1.40;;;;;;;;;;5031036;28;20034;-73
2022/06/11 10:03:31;;;;;;;5.10;1.50;;;;;;;;;;5030405;28;20424;-75
2022/06/11 10:06:03;;;;;;;3.65;1.20;;;;;;;;;;5030799;28;20053;-73
2022/06/11 10:08:43;;;;;;;5.28;1.35;;;;;;;;;;5030649;28;20024;-76
2022/06/11 10:11:46;;;;;;;3.97;1.48;;;;;;;;;;5029560;28;20025;-79
2022/06/11 10:14:36;;;;;;;5.72;1.67;;;;;;;;;;4971295;28;20417;-73
2022/06/11 10:17:29;;;;;;;6.68;1.30;;;;;;;;;;5030112;28;20059;-80
2022/06/11 10:20:17;;;;;;;4.85;1.33;;;;;;;;;;5030662;28;20041;-80
2022/06/11 10:23:10;;;;;;;7.57;1.67;;;;;;;;;;5030407;28;20025;-74
2022/06/11 10:25:48;;;;;;;4.38;1.15;;;;;;;;;;5030376;28;20112;-79
2022/06/11 10:28:21;;;;;;;5.90;1.27;;;;;;;;;;5030392;28;20033;-80
2022/06/11 10:31:16;;;;;;;4.25;1.48;;;;;;;;;;5030759;28;20022;-80
2022/06/11 10:33:44;;;;;;;6.22;1.42;;;;;;;;;;5024915;28;20060;-79
2022/06/11 10:36:10;;;;;;;4.53;1.52;;;;;;;;;;5030516;28;20029;-79
2022/06/11 10:38:38;;;;;;;4.47;1.27;;;;;;;;;;5028810;28;20501;-73
2022/06/11 10:41:08;;;;;;;4.72;1.20;;;;;;;;;;5030482;28;20029;-72
2022/06/11 10:43:37;;;;;;;4.33;1.33;;;;;;;;;;5028808;28;20061;-77
2022/06/11 10:46:02;;;;;;;5.55;1.50;;;;;;;;;;5030382;28;20021;-81
2022/06/11 10:48:36;;;;;;;2.88;1.02;;;;;;;;;;5030398;28;20036;-76
2022/06/11 10:51:12;;;;;;;3.17;1.20;;;;;;;;;;5029196;28;20381;-80
2022/06/11 10:53:48;;;;;;;5.60;1.50;;;;;;;;;;5030384;28;20021;-72
2022/06/11 10:56:23;;;;;;;3.17;1.23;;;;;;;;;;5030204;28;20018;-80
2022/06/11 10:58:59;;;;;;;4.20;1.20;;;;;;;;;;5029859;28;20060;-74
2022/06/11 11:01:31;;;;;;;3.92;1.20;;;;;;;;;;5030143;28;20401;-73
2022/06/11 11:04:13;;;;;;;6.13;1.42;;;;;;;;;;5029873;28;20030;-72
2022/06/11 11:06:41;;;;;;;3.40;1.35;;;;;;;;;;5029999;28;20029;-79
2022/06/11 11:09:21;;;;;;;6.68;1.50;;;;;;;;;;5030051;28;20025;-80
2022/06/11 11:11:50;;;;;;;4.23;1.40;;;;;;;;;;5030170;28;20111;-74
2022/06/11 11:14:27;;;;;;;4.68;1.50;;;;;;;;;;5029787;28;20032;-80
2022/06/11 11:16:53;;;;;;;7.45;1.52;;;;;;;;;;5029954;28;20030;-79
2022/06/11 11:19:34;;;;;;;4.43;1.10;;;;;;;;;;5029653;28;20028;-73
2022/06/11 11:22:05;;;;;;;4.13;1.20;;;;;;;;;;5029946;28;20030;-81
2022/06/11 11:24:49;;;;;;;3.28;1.23;;;;;;;;;;5030256;28;20053;-79
2022/06/11 11:27:17;;;;;;;5.03;1.45;;;;;;;;;;5034121;28;20481;-81
2022/06/11 11:29:59;;;;;;;6.93;1.10;;;;;;;;;;5033703;28;20037;-80
2022/06/11 11:32:29;;;;;;;5.47;1.40;;;;;;;;;;5033837;28;20374;-81
2022/06/11 11:34:55;;;;;;;4.22;1.33;;;;;;;;;;5033117;28;20037;-78
2022/06/11 11:37:26;;;;;;;6.50;1.55;;;;;;;;;;5032019;28;20538;-77
2022/06/11 11:40:02;;;;;;;8.38;1.50;;;;;;;;;;5033550;28;20079;-79
2022/06/11 11:42:39;;;;;;;5.68;1.30;;;;;;;;;;5033776;28;20109;-81
2022/06/11 11:45:26;;;;;;;4.90;1.20;;;;;;;;;;5033345;28;20210;-80
2022/06/11 11:48:02;;;;;;;4.80;1.42;;;;;;;;;;5033545;28;20109;-81
2022/06/11 11:50:34;;;;;;;4.75;1.10;;;;;;;;;;5032986;28;20025;-80
2022/06/11 11:53:11;;;;;;;2.58;1.00;;;;;;;;;;5033280;28;20029;-80
2022/06/11 11:55:40;;;;;;;2.67;0.90;;;;;;;;;;5032880;28;20079;-74
2022/06/11 11:58:15;;;;;;;6.78;1.25;;;;;;;;;;5033270;28;20441;-80
2022/06/11 12:00:54;;;;;;;3.45;1.20;;;;;;;;;;5033099;28;20052;-80
2022/06/11 12:03:34;;;;;;;4.83;1.13;;;;;;;;;;5033331;28;20516;-79
2022/06/11 12:06:01;;;;;;;2.42;1.10;;;;;;;;;;5032898;28;20062;-78
2022/06/11 12:08:34;;;;;;;4.05;1.13;;;;;;;;;;5033195;28;20010;-75
2022/06/11 12:11:03;;;;;;;2.75;0.93;;;;;;;;;;5032907;28;20026;-74
2022/06/11 12:13:44;;;;;;;3.28;1.20;;;;;;;;;;5032974;28;20450;-79
2022/06/11 12:16:18;;;;;;;2.63;1.00;;;;;;;;;;5032822;28;20035;-80
2022/06/11 12:18:49;;;;;;;1.92;0.90;;;;;;;;;;5033107;28;20578;-79
2022/06/11 12:21:20;;;;;;;2.17;1.05;;;;;;;;;;5033156;28;20075;-79
2022/06/11 12:24:03;;;;;;;2.92;1.20;;;;;;;;;;5032758;28;20045;-80
2022/06/11 12:26:34;;;;;;;2.58;1.00;;;;;;;;;;5032614;28;20534;-79
2022/06/11 12:29:07;;;;;;;2.85;1.10;;;;;;;;;;5032885;28;20029;-80
2022/06/11 12:31:34;;;;;;;2.83;1.02;;;;;;;;;;5032652;28;20021;-80
2022/06/11 12:34:01;;;;;;;2.30;0.90;;;;;;;;;;5033038;28;20036;-76
2022/06/11 12:36:53;;;;;;;3.00;1.20;;;;;;;;;;5031452;28;20029;-79
2022/06/11 12:39:27;;;;;;;3.65;1.08;;;;;;;;;;5032440;28;20025;-72
2022/06/11 12:41:56;;;;;;;5.32;1.00;;;;;;;;;;5032609;28;20123;-77
2022/06/11 12:44:40;;;;;;;2.20;1.10;;;;;;;;;;5032292;28;20493;-73
2022/06/11 12:47:21;;;;;;;4.90;1.05;;;;;;;;;;5032426;28;20627;-80
2022/06/11 12:49:52;;;;;;;7.03;1.30;;;;;;;;;;5032452;28;20611;-80
2022/06/11 12:52:47;;;;;;;4.22;1.10;;;;;;;;;;5032403;28;20056;-73
2022/06/11 12:55:18;;;;;;;4.60;1.25;;;;;;;;;;5032072;28;20053;-75
2022/06/11 12:57:56;;;;;;;4.38;1.17;;;;;;;;;;5032318;28;20040;-78
2022/06/11 13:00:27;;;;;;;5.38;1.20;;;;;;;;;;5031921;28;20029;-74
2022/06/11 13:03:25;;;;;;;3.33;1.00;;;;;;;;;;5032318;28;20029;-79
2022/06/11 13:05:59;;;;;;;3.45;1.08;;;;;;;;;;5031733;28;20053;-74
2022/06/11 13:08:44;;;;;;;3.53;0.90;;;;;;;;;;5032182;28;20504;-74
2022/06/11 13:11:40;;;;;;;3.13;0.90;;;;;;;;;;5030221;28;20034;-78
2022/06/11 13:14:21;;;;;;;2.67;1.20;;;;;;;;;;5032247;28;20026;-73
2022/06/11 13:17:21;;;;;;;2.08;0.93;;;;;;;;;;5031633;28;20393;-80
2022/06/11 13:20:08;;;;;;;5.57;1.00;;;;;;;;;;4989823;28;20042;-79
2022/06/11 13:22:47;;;;;;;1.30;0.90;;;;;;;;;;5028907;28;20133;-79
2022/06/11 13:25:25;;;;;;;5.13;1.08;;;;;;;;;;5029788;28;20041;-78
2022/06/11 13:28:07;;;;;;;2.63;1.02;;;;;;;;;;5032202;28;20079;-79
2022/06/11 13:31:11;;;;;;;1.90;0.90;;;;;;;;;;5031523;28;20026;-79
2022/06/11 13:34:11;;;;;;;3.83;0.90;;;;;;;;;;4994449;28;20510;-81
2022/06/11 13:36:36;;;;;;;1.77;0.80;;;;;;;;;;5030698;28;20025;-81
2022/06/11 13:39:08;;;;;;;3.00;0.90;;;;;;;;;;5031450;28;20029;-79
2022/06/11 13:41:50;;;;;;;2.92;0.90;;;;;;;;;;5031218;28;20029;-79
2022/06/11 13:44:45;;;;;;;3.70;0.80;;;;;;;;;;5031508;28;20030;-80
2022/06/11 13:47:42;;;;;;;2.83;0.70;;;;;;;;;;5031157;28;20481;-79
2022/06/11 13:50:31;;;;;;;1.77;0.88;;;;;;;;;;5030959;28;20377;-80
2022/06/11 13:56:16;;;;;;;1.10;0.70;;;;;;;;;;5028755;28;20119;-80
2022/06/11 13:59:18;;;;;;;1.80;0.90;;;;;;;;;;5031246;28;20036;-76
2022/06/11 14:02:08;;;;;;;3.22;1.00;;;;;;;;;;5031038;28;20632;-79
2022/06/11 14:04:45;;;;;;;2.95;0.80;;;;;;;;;;5031217;28;20114;-81
2022/06/11 14:07:15;;;;;;;2.40;0.85;;;;;;;;;;5030591;28;20405;-81
2022/06/11 14:12:47;;;;;;;2.28;1.00;;;;;;;;;;5030699;28;20052;-74
2022/06/11 14:15:35;;;;;;;3.65;1.00;;;;;;;;;;5030497;28;20021;-74
2022/06/11 14:18:36;;;;;;;5.35;1.10;;;;;;;;;;5031018;28;20061;-73
2022/06/11 14:21:24;;;;;;;3.75;0.90;;;;;;;;;;5030607;28;20018;-74
2022/06/11 14:23:51;;;;;;;4.05;0.90;;;;;;;;;;5023025;28;20507;-74
2022/06/11 14:26:17;;;;;;;2.08;0.90;;;;;;;;;;5030314;28;20083;-72
2022/06/11 14:29:01;;;;;;;1.80;0.90;;;;;;;;;;5030500;28;20025;-75
2022/06/11 14:31:51;;;;;;;2.20;0.80;;;;;;;;;;5030363;28;20108;-72
2022/06/11 14:34:29;;;;;;;1.60;0.80;;;;;;;;;;5030550;28;20030;-73
2022/06/11 14:37:09;;;;;;;5.63;1.70;;;;;;;;;;5029983;28;20040;-73
2022/06/11 14:39:38;;;;;;;1.42;0.77;;;;;;;;;;5030608;28;20033;-74
2022/06/11 14:42:18;;;;;;;3.33;1.05;;;;;;;;;;5030222;28;20057;-73
2022/06/11 14:44:43;;;;;;;1.83;1.00;;;;;;;;;;5030373;28;20457;-73
2022/06/11 14:47:53;;;;;;;2.13;0.95;;;;;;;;;;5029898;28;20057;-73
2022/06/11 14:50:42;;;;;;;1.25;0.70;;;;;;;;;;5010713;28;20048;-73
2022/06/11 14:53:36;;;;;;;2.47;0.88;;;;;;;;;;5030260;28;20052;-73
2022/06/11 14:56:13;;;;;;;4.50;1.30;;;;;;;;;;5011787;28;20045;-74
2022/06/11 14:59:03;;;;;;;2.78;1.10;;;;;;;;;;5030157;28;20203;-73
2022/06/11 15:01:57;;;;;;;3.45;0.90;;;;;;;;;;5030237;28;20159;-72
2022/06/11 15:04:41;;;;;;;1.98;0.93;;;;;;;;;;5030065;28;20055;-76
2022/06/11 15:07:25;;;;;;;1.40;0.70;;;;;;;;;;5029672;28;20033;-74
2022/06/11 15:10:07;;;;;;;4.30;0.93;;;;;;;;;;5030350;28;20077;-73
2022/06/11 15:12:51;;;;;;;0.90;0.80;;;;;;;;;;5029998;28;20071;-79
2022/06/11 15:15:49;;;;;;;5.03;1.00;;;;;;;;;;5030276;28;20037;-80
2022/06/11 15:18:40;;;;;;;1.90;0.90;;;;;;;;;;5029836;28;20056;-77
2022/06/11 15:21:24;;;;;;;1.90;0.88;;;;;;;;;;5029827;28;20493;-77
2022/06/11 15:23:56;;;;;;;2.47;0.90;;;;;;;;;;5029872;28;20049;-80
2022/06/11 15:26:26;;;;;;;2.42;0.80;;;;;;;;;;5028334;28;20021;-75
2022/06/11 15:29:11;;;;;;;2.60;0.90;;;;;;;;;;5030142;28;20036;-79
2022/06/11 15:31:43;;;;;;;3.20;0.82;;;;;;;;;;5029452;28;20041;-76
2022/06/11 15:34:19;;;;;;;1.50;0.75;;;;;;;;;;5029991;28;20044;-79